createdAt,value
2023-12-09T00:00:03.358Z,92.70
2023-12-09T00:02:06.813Z,93.20
2023-12-09T00:04:08.974Z,95.33
2023-12-09T00:06:11.238Z,98.47
2023-12-09T00:08:13.572Z,97.77
2023-12-09T00:10:15.690Z,98.43
2023-12-09T00:12:18.777Z,94.13
2023-12-09T00:14:21.600Z,97.33
2023-12-09T00:16:23.687Z,97.53
2023-12-09T00:18:25.994Z,104.07
2023-12-09T00:20:28.126Z,101.80
2023-12-09T00:22:30.499Z,97.27
2023-12-09T00:24:32.845Z,96.73
2023-12-09T00:26:34.977Z,95.90
2023-12-09T00:28:37.023Z,100.50
2023-12-09T00:30:39.476Z,99.93
2023-12-09T00:32:41.619Z,98.73
2023-12-09T00:34:43.769Z,95.67
2023-12-09T00:36:45.898Z,94.03
2023-12-09T00:38:48.195Z,99.70
2023-12-09T00:40:50.281Z,111.40
2023-12-09T00:42:52.333Z,98.33
2023-12-09T00:44:54.416Z,96.90
2023-12-09T00:46:56.518Z,101.23
2023-12-09T00:48:58.738Z,94.40
2023-12-09T00:51:01.159Z,97.47
2023-12-09T00:53:03.442Z,92.40
2023-12-09T00:55:06.309Z,104.47
2023-12-09T00:57:08.607Z,94.47
2023-12-09T00:59:10.837Z,93.27
2023-12-09T01:01:14.690Z,82.43
2023-12-09T01:03:16.892Z,98.13
2023-12-09T01:05:19.150Z,93.07
2023-12-09T01:07:21.225Z,96.13
2023-12-09T01:09:23.366Z,89.67
2023-12-09T01:11:26.055Z,88.40
2023-12-09T01:13:29.344Z,89.00
2023-12-09T01:15:31.548Z,90.70
2023-12-09T01:17:33.664Z,90.37
2023-12-09T01:19:35.840Z,91.27
2023-12-09T01:21:38.406Z,97.60
2023-12-09T01:23:41.018Z,91.93
2023-12-09T01:25:43.235Z,97.40
2023-12-09T01:27:45.242Z,87.37
2023-12-09T01:29:47.401Z,94.10
2023-12-09T01:31:49.502Z,88.77
2023-12-09T01:33:51.732Z,90.17
2023-12-09T01:35:53.953Z,101.53
2023-12-09T01:37:56.113Z,90.10
2023-12-09T01:39:58.227Z,87.33
2023-12-09T01:42:01.446Z,91.37
2023-12-09T01:44:04.036Z,89.50
2023-12-09T01:46:07.879Z,93.83
2023-12-09T01:48:10.122Z,92.40
2023-12-09T01:50:12.675Z,89.67
2023-12-09T01:52:15.167Z,93.40
2023-12-09T01:54:17.336Z,86.10
2023-12-09T01:56:21.668Z,87.27
2023-12-09T01:58:24.015Z,83.43
2023-12-09T02:00:26.218Z,91.30
2023-12-09T02:02:28.598Z,83.37
2023-12-09T02:04:31.009Z,85.80
2023-12-09T02:06:33.206Z,73.17
2023-12-09T02:08:36.183Z,86.00
2023-12-09T02:10:38.905Z,80.17
2023-12-09T02:13:06.368Z,81.10
2023-12-09T02:15:14.128Z,86.53
2023-12-09T02:17:22.095Z,83.73
2023-12-09T02:19:25.210Z,77.17
2023-12-09T02:21:28.117Z,76.53
2023-12-09T02:23:30.214Z,84.00
2023-12-09T02:25:32.881Z,85.63
2023-12-09T02:27:50.367Z,93.90
2023-12-09T02:30:37.249Z,86.67
2023-12-09T02:32:39.991Z,77.97
2023-12-09T02:34:43.453Z,89.20
2023-12-09T02:36:46.797Z,82.17
2023-12-09T02:38:53.068Z,84.10
2023-12-09T02:40:55.813Z,84.97
2023-12-09T02:42:57.988Z,80.47
2023-12-09T02:45:00.403Z,88.83
2023-12-09T02:47:02.626Z,86.00
2023-12-09T02:49:04.864Z,82.97
2023-12-09T02:51:07.861Z,71.80
2023-12-09T02:53:09.992Z,88.40
2023-12-09T02:55:12.178Z,82.60
2023-12-09T02:57:14.242Z,80.77
2023-12-09T02:59:16.328Z,81.67
2023-12-09T03:01:18.337Z,84.93
2023-12-09T03:03:20.498Z,80.90
2023-12-09T03:05:22.667Z,76.37
2023-12-09T03:07:25.088Z,81.00
2023-12-09T03:09:27.202Z,86.83
2023-12-09T03:11:29.359Z,82.23
2023-12-09T03:13:31.452Z,88.57
2023-12-09T03:15:33.590Z,89.00
2023-12-09T03:17:36.615Z,90.30
2023-12-09T03:19:38.970Z,85.53
2023-12-09T03:21:41.182Z,88.00
2023-12-09T03:23:43.974Z,87.93
2023-12-09T03:25:46.125Z,74.67
2023-12-09T03:27:48.163Z,79.57
2023-12-09T03:29:50.305Z,96.30
2023-12-09T03:31:52.540Z,86.37
2023-12-09T03:33:54.783Z,83.77
2023-12-09T03:35:57.001Z,69.97
2023-12-09T03:37:59.110Z,69.60
2023-12-09T03:40:01.158Z,66.83
2023-12-09T03:42:03.328Z,68.80
2023-12-09T03:44:05.652Z,78.07
2023-12-09T03:46:07.712Z,71.37
2023-12-09T03:48:09.818Z,78.23
2023-12-09T03:50:11.912Z,79.13
2023-12-09T03:52:16.557Z,80.00
2023-12-09T03:54:20.082Z,93.77
2023-12-09T03:56:23.032Z,74.97
2023-12-09T03:58:25.120Z,97.20
2023-12-09T04:00:27.330Z,91.00
2023-12-09T04:02:29.623Z,83.50
2023-12-09T04:04:31.919Z,89.90
2023-12-09T04:06:34.197Z,76.03
2023-12-09T04:08:36.288Z,86.87
2023-12-09T04:10:38.406Z,85.03
2023-12-09T04:12:41.679Z,90.27
2023-12-09T04:14:43.785Z,78.13
2023-12-09T04:16:45.861Z,79.07
2023-12-09T04:18:48.567Z,85.17
2023-12-09T04:20:50.782Z,95.27
2023-12-09T04:22:52.891Z,77.40
2023-12-09T04:24:55.618Z,75.73
2023-12-09T04:26:57.659Z,74.60
2023-12-09T04:28:59.684Z,79.40
2023-12-09T04:31:01.723Z,83.73
2023-12-09T04:33:04.050Z,76.00
2023-12-09T04:35:07.271Z,70.77
2023-12-09T04:37:09.476Z,85.37
2023-12-09T04:39:11.695Z,81.53
2023-12-09T04:41:13.846Z,78.00
2023-12-09T04:43:16.722Z,78.97
2023-12-09T04:45:18.810Z,88.23
2023-12-09T04:47:20.915Z,89.83
2023-12-09T04:49:23.220Z,82.47
2023-12-09T04:51:25.666Z,85.10
2023-12-09T04:53:27.800Z,80.70
2023-12-09T04:55:29.840Z,79.57
2023-12-09T04:57:32.552Z,84.50
2023-12-09T04:59:34.698Z,70.60
2023-12-09T05:01:36.749Z,76.53
2023-12-09T05:03:38.900Z,76.57
2023-12-09T05:05:41.078Z,66.47
2023-12-09T05:07:43.454Z,66.87
2023-12-09T05:09:45.559Z,64.67
2023-12-09T05:11:47.607Z,68.93
2023-12-09T05:13:50.143Z,62.33
2023-12-09T05:15:53.392Z,64.90
2023-12-09T05:17:55.567Z,74.27
2023-12-09T05:19:57.723Z,63.40
2023-12-09T05:22:01.167Z,77.97
2023-12-09T05:24:05.482Z,61.10
2023-12-09T05:26:07.742Z,50.43
2023-12-09T05:28:09.852Z,55.67
2023-12-09T05:30:12.368Z,55.27
2023-12-09T05:32:14.552Z,66.17
2023-12-09T05:34:18.379Z,55.57
2023-12-09T05:36:20.600Z,57.53
2023-12-09T05:38:22.772Z,56.67
2023-12-09T05:40:24.866Z,65.60
2023-12-09T05:42:27.210Z,73.93
2023-12-09T05:44:29.564Z,61.47
2023-12-09T05:46:31.649Z,62.17
2023-12-09T05:48:37.277Z,61.17
2023-12-09T05:50:39.624Z,62.20
2023-12-09T05:52:44.599Z,61.43
2023-12-09T05:54:46.790Z,55.97
2023-12-09T05:56:51.914Z,63.13
2023-12-09T05:58:54.337Z,56.77
2023-12-09T06:00:56.547Z,48.97
2023-12-09T06:02:58.653Z,57.87
2023-12-09T06:05:00.790Z,65.77
2023-12-09T06:07:03.168Z,56.50
2023-12-09T06:09:06.022Z,62.67
2023-12-09T06:11:08.242Z,61.20
2023-12-09T06:13:10.784Z,64.80
2023-12-09T06:15:13.327Z,58.20
2023-12-09T06:17:15.536Z,65.37
2023-12-09T06:19:17.644Z,65.63
2023-12-09T06:21:24.195Z,72.00
2023-12-09T06:23:26.354Z,65.43
2023-12-09T06:25:28.498Z,64.20
2023-12-09T06:27:31.201Z,80.67
2023-12-09T06:29:34.667Z,65.37
2023-12-09T06:31:36.722Z,69.40
2023-12-09T06:33:39.195Z,67.50
2023-12-09T06:35:41.850Z,75.03
2023-12-09T06:37:43.996Z,77.53
2023-12-09T06:39:46.093Z,70.93
2023-12-09T06:41:48.569Z,70.83
2023-12-09T06:43:50.616Z,71.07
2023-12-09T06:45:52.688Z,70.70
2023-12-09T06:47:55.270Z,74.47
2023-12-09T06:49:57.672Z,62.70
2023-12-09T06:51:59.766Z,71.00
2023-12-09T06:54:01.974Z,69.63
2023-12-09T06:56:05.130Z,64.50
2023-12-09T06:58:07.232Z,74.67
2023-12-09T07:00:09.838Z,73.30
2023-12-09T07:02:12.003Z,70.03
2023-12-09T07:04:15.343Z,80.63
2023-12-09T07:06:21.749Z,79.73
2023-12-09T07:08:23.819Z,69.53
2023-12-09T07:10:25.848Z,64.47
2023-12-09T07:12:28.191Z,75.70
2023-12-09T07:14:31.098Z,72.73
2023-12-09T07:16:33.187Z,77.20
2023-12-09T07:18:35.529Z,59.90
2023-12-09T07:20:37.649Z,61.17
2023-12-09T07:22:39.823Z,55.87
2023-12-09T07:24:42.076Z,53.97
2023-12-09T07:26:44.263Z,53.77
2023-12-09T07:28:46.396Z,58.73
2023-12-09T07:30:48.412Z,61.27
2023-12-09T07:32:50.794Z,67.60
2023-12-09T07:34:56.830Z,49.40
2023-12-09T07:36:59.437Z,48.13
2023-12-09T07:39:01.479Z,52.87
2023-12-09T07:41:03.751Z,48.73
2023-12-09T07:43:05.977Z,64.13
2023-12-09T07:45:08.734Z,53.70
2023-12-09T07:47:10.846Z,58.63
2023-12-09T07:49:13.173Z,53.83
2023-12-09T07:51:15.350Z,58.53
2023-12-09T07:53:17.570Z,50.10
2023-12-09T07:55:19.759Z,48.87
2023-12-09T07:57:21.935Z,48.07
2023-12-09T07:59:24.137Z,53.40
2023-12-09T08:01:27.801Z,55.10
2023-12-09T08:03:32.532Z,46.90
2023-12-09T08:05:38.050Z,48.40
2023-12-09T08:07:40.352Z,51.73
2023-12-09T08:09:42.601Z,47.80
2023-12-09T08:11:44.724Z,66.23
2023-12-09T08:13:46.879Z,49.40
2023-12-09T08:15:48.942Z,58.60
2023-12-09T08:17:51.128Z,47.80
2023-12-09T08:19:53.293Z,44.50
2023-12-09T08:21:55.977Z,45.77
2023-12-09T08:23:58.085Z,48.47
2023-12-09T08:26:00.296Z,54.17
2023-12-09T08:28:02.531Z,43.17
2023-12-09T08:30:05.903Z,38.73
2023-12-09T08:32:10.395Z,36.97
2023-12-09T08:34:12.608Z,34.13
2023-12-09T08:36:15.178Z,30.43
2023-12-09T08:38:17.328Z,26.23
2023-12-09T08:40:19.713Z,23.00
2023-12-09T08:42:22.148Z,21.43
2023-12-09T08:44:24.283Z,21.03
2023-12-09T08:46:26.568Z,20.97
2023-12-09T08:48:28.851Z,17.10
2023-12-09T08:50:31.150Z,21.83
2023-12-09T08:52:33.807Z,17.77
2023-12-09T08:54:35.921Z,17.40
2023-12-09T08:56:38.284Z,16.50
2023-12-09T08:58:40.365Z,22.43
2023-12-09T09:00:42.542Z,19.60
2023-12-09T09:02:44.676Z,17.70
2023-12-09T09:04:46.722Z,23.93
2023-12-09T09:06:48.787Z,12.93
2023-12-09T09:08:50.899Z,25.40
2023-12-09T09:10:53.033Z,20.43
2023-12-09T09:12:55.148Z,20.80
2023-12-09T09:14:57.688Z,20.67
2023-12-09T09:17:00.903Z,14.17
2023-12-09T09:19:03.607Z,19.10
2023-12-09T09:21:05.842Z,17.83
2023-12-09T09:23:07.968Z,15.07
2023-12-09T09:25:10.652Z,10.50
2023-12-09T09:27:12.752Z,9.77
2023-12-09T09:29:14.972Z,9.07
2023-12-09T09:31:17.296Z,7.83
2023-12-09T09:33:19.526Z,6.80
2023-12-09T09:35:21.931Z,11.63
2023-12-09T09:37:24.521Z,9.60
2023-12-09T09:39:27.686Z,10.27
2023-12-09T09:41:33.733Z,19.37
2023-12-09T09:43:40.163Z,8.23
2023-12-09T09:45:43.720Z,9.03
2023-12-09T09:47:48.980Z,10.93
2023-12-09T09:49:52.446Z,9.00
2023-12-09T09:51:57.973Z,8.60
2023-12-09T09:54:11.651Z,8.60
2023-12-09T09:56:14.097Z,9.20
2023-12-09T09:58:17.606Z,9.97
2023-12-09T10:00:21.015Z,9.97
2023-12-09T10:02:26.596Z,8.93
2023-12-09T10:04:28.799Z,8.03
2023-12-09T10:06:31.075Z,9.70
2023-12-09T10:08:33.274Z,11.33
2023-12-09T10:10:36.408Z,7.80
2023-12-09T10:12:39.083Z,8.17
2023-12-09T10:14:41.220Z,8.80
2023-12-09T10:16:43.607Z,6.83
2023-12-09T10:18:49.232Z,7.70
2023-12-09T10:20:51.523Z,8.10
2023-12-09T10:22:53.605Z,8.53
2023-12-09T10:24:56.642Z,9.83
2023-12-09T10:26:58.884Z,5.87
2023-12-09T10:29:01.852Z,4.77
2023-12-09T10:31:04.317Z,5.33
2023-12-09T10:33:06.711Z,6.17
2023-12-09T10:35:08.937Z,4.13
2023-12-09T10:37:11.143Z,9.70
2023-12-09T10:39:13.774Z,5.07
2023-12-09T10:41:17.399Z,4.10
2023-12-09T10:43:19.391Z,6.20
2023-12-09T10:45:21.537Z,5.80
2023-12-09T10:47:23.686Z,8.77
2023-12-09T10:49:25.878Z,5.40
2023-12-09T10:51:28.577Z,7.73
2023-12-09T10:53:30.773Z,5.43
2023-12-09T10:55:33.010Z,8.93
2023-12-09T10:57:35.238Z,5.63
2023-12-09T10:59:37.699Z,4.97
2023-12-09T11:01:40.152Z,6.13
2023-12-09T11:03:42.301Z,5.13
2023-12-09T11:05:48.144Z,6.20
2023-12-09T11:07:50.582Z,3.07
2023-12-09T11:09:53.178Z,4.13
2023-12-09T11:11:55.327Z,4.73
2023-12-09T11:13:59.734Z,3.87
2023-12-09T11:16:15.287Z,4.33
2023-12-09T11:18:19.059Z,7.40
2023-12-09T11:20:21.675Z,5.37
2023-12-09T11:22:23.909Z,3.57
2023-12-09T11:24:30.466Z,3.20
2023-12-09T11:26:37.917Z,5.50
2023-12-09T11:28:40.086Z,4.67
2023-12-09T11:30:43.567Z,6.63
2023-12-09T11:32:45.748Z,7.40
2023-12-09T11:34:48.531Z,5.47
2023-12-09T11:36:55.069Z,7.53
2023-12-09T11:38:57.693Z,4.07
2023-12-09T11:40:59.773Z,3.50
2023-12-09T11:43:04.556Z,3.20
2023-12-09T11:45:07.636Z,4.10
2023-12-09T11:47:10.580Z,3.53
2023-12-09T11:49:12.850Z,4.97
2023-12-09T11:51:14.973Z,3.67
2023-12-09T11:53:17.053Z,6.63
2023-12-09T11:55:20.705Z,5.13
2023-12-09T11:57:23.356Z,5.63
2023-12-09T11:59:25.420Z,4.83
2023-12-09T12:01:33.299Z,5.13
2023-12-09T12:03:35.550Z,7.60
2023-12-09T12:05:38.685Z,3.13
2023-12-09T12:07:41.024Z,3.30
2023-12-09T12:09:43.187Z,13.23
2023-12-09T12:11:45.923Z,6.27
2023-12-09T12:13:48.819Z,6.43
2023-12-09T12:15:51.796Z,8.97
2023-12-09T12:17:54.090Z,5.30
2023-12-09T12:19:56.554Z,3.07
2023-12-09T12:21:58.760Z,5.20
2023-12-09T12:24:06.426Z,3.43
2023-12-09T12:26:10.035Z,3.77
2023-12-09T12:28:15.654Z,4.63
2023-12-09T12:30:18.003Z,4.20
2023-12-09T12:32:20.152Z,5.77
2023-12-09T12:34:22.336Z,4.80
2023-12-09T12:36:24.633Z,6.50
2023-12-09T12:38:27.471Z,7.13
2023-12-09T12:40:29.626Z,2.63
2023-12-09T12:42:32.349Z,5.10
2023-12-09T12:44:34.802Z,3.10
2023-12-09T12:46:36.931Z,4.23
2023-12-09T12:48:39.718Z,3.47
2023-12-09T12:50:42.765Z,3.33
2023-12-09T12:52:45.475Z,3.80
2023-12-09T12:54:48.152Z,6.60
2023-12-09T12:56:50.380Z,5.67
2023-12-09T12:58:52.726Z,5.00
2023-12-09T13:00:56.068Z,3.43
2023-12-09T13:02:58.897Z,5.70
2023-12-09T13:05:01.135Z,4.37
2023-12-09T13:07:04.208Z,5.50
2023-12-09T13:09:09.704Z,5.63
2023-12-09T13:11:11.994Z,4.67
2023-12-09T13:13:14.272Z,5.20
2023-12-09T13:15:16.594Z,4.67
2023-12-09T13:17:18.728Z,6.03
2023-12-09T13:19:20.956Z,5.47
2023-12-09T13:21:23.079Z,7.73
2023-12-09T13:23:25.176Z,4.07
2023-12-09T13:25:27.366Z,4.90
2023-12-09T13:27:29.737Z,3.90
2023-12-09T13:29:31.969Z,3.00
2023-12-09T13:31:34.144Z,6.30
2023-12-09T13:33:36.608Z,4.00
2023-12-09T13:35:38.837Z,5.57
2023-12-09T13:37:41.035Z,4.97
2023-12-09T13:39:43.334Z,4.27
2023-12-09T13:41:45.535Z,4.07
2023-12-09T13:43:47.854Z,6.50
2023-12-09T13:45:49.992Z,5.33
2023-12-09T13:47:52.275Z,6.17
2023-12-09T13:49:54.611Z,4.40
2023-12-09T13:51:56.876Z,5.63
2023-12-09T13:53:59.060Z,6.30
2023-12-09T13:56:01.187Z,5.17
2023-12-09T13:58:05.124Z,6.90
2023-12-09T14:00:09.075Z,5.00
2023-12-09T14:02:11.544Z,8.60
2023-12-09T14:04:14.054Z,9.10
2023-12-09T14:06:16.536Z,11.23
2023-12-09T14:08:18.582Z,6.90
2023-12-09T14:10:21.566Z,7.80
2023-12-09T14:12:23.828Z,8.50
2023-12-09T14:14:26.024Z,12.50
2023-12-09T14:16:28.151Z,7.90
2023-12-09T14:18:30.870Z,10.23
2023-12-09T14:20:34.791Z,7.97
2023-12-09T14:22:37.062Z,8.60
2023-12-09T14:24:39.333Z,8.30
2023-12-09T14:26:41.587Z,6.90
2023-12-09T14:28:43.731Z,7.80
2023-12-09T14:30:45.857Z,7.30
2023-12-09T14:32:48.058Z,6.47
2023-12-09T14:34:50.414Z,6.63
2023-12-09T14:36:54.207Z,7.17
2023-12-09T14:38:56.312Z,9.30
2023-12-09T14:40:58.414Z,8.50
2023-12-09T14:43:09.898Z,7.60
2023-12-09T14:45:13.618Z,10.83
2023-12-09T14:47:15.929Z,8.23
2023-12-09T14:49:18.279Z,8.63
2023-12-09T14:51:29.861Z,6.20
2023-12-09T14:53:39.370Z,6.17
2023-12-09T14:55:42.230Z,11.43
2023-12-09T14:57:44.673Z,9.93
2023-12-09T14:59:46.865Z,10.73
2023-12-09T15:01:49.270Z,14.23
2023-12-09T15:03:52.072Z,9.13
2023-12-09T15:05:54.261Z,10.83
2023-12-09T15:07:56.582Z,9.37
2023-12-09T15:09:58.781Z,8.27
2023-12-09T15:12:03.278Z,7.47
2023-12-09T15:14:06.923Z,10.17
2023-12-09T15:16:09.296Z,10.70
2023-12-09T15:18:11.919Z,10.70
2023-12-09T15:20:14.605Z,8.83
2023-12-09T15:22:16.786Z,8.73
2023-12-09T15:24:18.972Z,9.63
2023-12-09T15:26:21.175Z,8.37
2023-12-09T15:28:24.533Z,9.30
2023-12-09T15:30:26.881Z,11.20
2023-12-09T15:32:29.401Z,8.37
2023-12-09T15:34:32.353Z,9.60
2023-12-09T15:36:34.787Z,12.53
2023-12-09T15:38:37.013Z,12.87
2023-12-09T15:40:39.243Z,8.63
2023-12-09T15:42:42.052Z,10.80
2023-12-09T15:44:44.185Z,10.60
2023-12-09T15:46:46.523Z,8.87
2023-12-09T15:48:49.014Z,11.77
2023-12-09T15:50:51.269Z,13.10
2023-12-09T15:52:53.466Z,9.83
2023-12-09T15:54:55.550Z,10.80
2023-12-09T15:56:57.680Z,9.03
2023-12-09T15:58:59.732Z,9.20
2023-12-09T16:01:02.798Z,9.90
2023-12-09T16:03:05.322Z,9.57
2023-12-09T16:05:07.899Z,11.17
2023-12-09T16:07:10.152Z,12.43
2023-12-09T16:09:13.861Z,12.43
2023-12-09T16:11:15.970Z,11.50
2023-12-09T16:13:18.091Z,13.30
2023-12-09T16:15:20.199Z,17.37
2023-12-09T16:17:22.425Z,12.97
2023-12-09T16:19:25.060Z,8.77
2023-12-09T16:21:28.860Z,12.07
2023-12-09T16:23:31.061Z,18.10
2023-12-09T16:25:33.577Z,13.73
2023-12-09T16:27:35.930Z,13.37
2023-12-09T16:29:38.107Z,11.40
2023-12-09T16:31:40.302Z,12.60
2023-12-09T16:33:43.020Z,16.33
2023-12-09T16:35:45.142Z,16.03
2023-12-09T16:37:47.263Z,17.03
2023-12-09T16:39:49.413Z,16.30
2023-12-09T16:41:51.434Z,18.73
2023-12-09T16:43:53.675Z,11.93
2023-12-09T16:45:56.337Z,16.00
2023-12-09T16:47:58.576Z,12.63
2023-12-09T16:50:01.631Z,11.60
2023-12-09T16:52:04.945Z,11.30
2023-12-09T16:54:07.151Z,9.67
2023-12-09T16:56:09.955Z,16.37
2023-12-09T16:58:12.863Z,12.87
2023-12-09T17:00:15.486Z,13.10
2023-12-09T17:02:17.826Z,11.53
2023-12-09T17:04:20.199Z,15.03
2023-12-09T17:06:22.896Z,13.93
2023-12-09T17:08:25.065Z,19.00
2023-12-09T17:10:27.199Z,8.50
2023-12-09T17:12:29.527Z,10.60
2023-12-09T17:14:31.924Z,8.00
2023-12-09T17:16:34.596Z,24.57
2023-12-09T17:18:36.826Z,11.93
2023-12-09T17:20:39.023Z,16.80
2023-12-09T17:22:41.222Z,21.90
2023-12-09T17:24:43.507Z,12.63
2023-12-09T17:26:45.846Z,18.33
2023-12-09T17:28:47.952Z,13.20
2023-12-09T17:30:50.901Z,10.13
2023-12-09T17:32:53.170Z,10.40
2023-12-09T17:34:55.356Z,11.70
2023-12-09T17:36:57.744Z,10.70
2023-12-09T17:39:00.019Z,12.53
2023-12-09T17:41:03.272Z,8.67
2023-12-09T17:43:05.561Z,8.60
2023-12-09T17:45:08.406Z,9.00
2023-12-09T17:47:10.649Z,8.47
2023-12-09T17:49:12.807Z,9.80
2023-12-09T17:51:15.322Z,6.60
2023-12-09T17:53:20.632Z,10.97
2023-12-09T17:55:22.913Z,6.87
2023-12-09T17:57:25.072Z,8.50
2023-12-09T17:59:28.646Z,8.80
2023-12-09T18:01:31.252Z,8.27
2023-12-09T18:03:33.460Z,12.20
2023-12-09T18:05:35.705Z,12.10
2023-12-09T18:07:38.197Z,10.07
2023-12-09T18:09:41.329Z,12.43
2023-12-09T18:11:43.503Z,10.20
2023-12-09T18:13:45.602Z,8.83
2023-12-09T18:15:48.045Z,8.03
2023-12-09T18:17:50.336Z,15.70
2023-12-09T18:19:52.610Z,10.57
2023-12-09T18:21:54.866Z,10.27
2023-12-09T18:23:57.022Z,10.17
2023-12-09T18:25:59.948Z,7.43
2023-12-09T18:28:03.489Z,9.80
2023-12-09T18:30:06.831Z,8.97
2023-12-09T18:32:14.408Z,11.20
2023-12-09T18:34:16.575Z,11.37
2023-12-09T18:36:19.011Z,8.33
2023-12-09T18:38:21.436Z,9.17
2023-12-09T18:40:24.305Z,11.63
2023-12-09T18:42:26.601Z,9.13
2023-12-09T18:44:28.800Z,6.97
2023-12-09T18:46:31.077Z,11.00
2023-12-09T18:48:33.298Z,7.30
2023-12-09T18:50:35.485Z,9.73
2023-12-09T18:52:37.940Z,7.70
2023-12-09T18:54:41.838Z,10.40
2023-12-09T18:56:44.030Z,12.07
2023-12-09T18:58:46.194Z,8.77
2023-12-09T19:00:58.988Z,10.80
2023-12-09T19:03:07.881Z,10.13
2023-12-09T19:05:10.945Z,7.27
2023-12-09T19:07:13.815Z,9.70
2023-12-09T19:09:15.962Z,11.87
2023-12-09T19:11:18.098Z,8.13
2023-12-09T19:13:20.130Z,9.40
2023-12-09T19:15:22.244Z,13.87
2023-12-09T19:17:24.879Z,11.83
2023-12-09T19:19:29.285Z,12.97
2023-12-09T19:21:31.704Z,10.30
2023-12-09T19:23:33.995Z,14.27
2023-12-09T19:25:36.269Z,15.17
2023-12-09T19:27:38.711Z,13.60
2023-12-09T19:29:41.156Z,13.07
2023-12-09T19:31:46.929Z,12.97
2023-12-09T19:33:49.294Z,12.73
2023-12-09T19:35:51.389Z,12.00
2023-12-09T19:37:53.425Z,13.93
2023-12-09T19:39:57.046Z,12.30
2023-12-09T19:41:59.284Z,12.17
2023-12-09T19:44:01.429Z,10.40
2023-12-09T19:46:03.539Z,14.10
2023-12-09T19:48:06.103Z,13.10
2023-12-09T19:50:09.033Z,12.60
2023-12-09T19:52:11.084Z,14.43
2023-12-09T19:54:13.403Z,15.30
2023-12-09T19:56:16.884Z,11.83
2023-12-09T19:58:18.992Z,10.60
2023-12-09T20:00:22.385Z,12.07
2023-12-09T20:02:24.596Z,10.80
2023-12-09T20:04:26.819Z,11.77
2023-12-09T20:06:29.514Z,14.73
2023-12-09T20:08:32.169Z,12.90
2023-12-09T20:10:34.339Z,11.40
2023-12-09T20:12:36.485Z,11.13
2023-12-09T20:14:38.786Z,14.97
2023-12-09T20:16:40.983Z,14.17
2023-12-09T20:18:43.310Z,12.50
2023-12-09T20:20:45.581Z,13.80
2023-12-09T20:22:47.746Z,12.30
2023-12-09T20:24:49.921Z,11.67
2023-12-09T20:26:52.269Z,11.37
2023-12-09T20:28:54.453Z,13.00
2023-12-09T20:30:58.730Z,15.27
2023-12-09T20:33:01.725Z,11.93
2023-12-09T20:35:04.826Z,11.70
2023-12-09T20:37:06.980Z,10.93
2023-12-09T20:39:12.319Z,11.10
2023-12-09T20:41:14.730Z,13.30
2023-12-09T20:43:17.120Z,14.03
2023-12-09T20:45:19.743Z,13.93
2023-12-09T20:47:21.965Z,10.30
2023-12-09T20:49:24.168Z,10.80
2023-12-09T20:51:27.677Z,13.70
2023-12-09T20:53:30.445Z,13.70
2023-12-09T20:55:32.902Z,11.70
2023-12-09T20:57:35.119Z,12.60
2023-12-09T20:59:37.221Z,13.37
2023-12-09T21:01:46.426Z,13.87
2023-12-09T21:03:48.664Z,12.17
2023-12-09T21:05:50.808Z,12.07
2023-12-09T21:07:55.576Z,10.73
2023-12-09T21:09:58.742Z,11.73
2023-12-09T21:12:02.549Z,13.33
2023-12-09T21:14:07.903Z,14.73
2023-12-09T21:16:10.049Z,11.63
2023-12-09T21:18:12.336Z,12.23
2023-12-09T21:20:14.701Z,13.50
2023-12-09T21:22:16.928Z,10.90
2023-12-09T21:24:19.348Z,13.10
2023-12-09T21:26:21.710Z,13.03
2023-12-09T21:28:24.018Z,14.60
2023-12-09T21:30:26.310Z,11.47
2023-12-09T21:32:28.694Z,11.53
2023-12-09T21:34:31.131Z,14.00
2023-12-09T21:36:33.378Z,11.67
2023-12-09T21:38:35.587Z,13.47
2023-12-09T21:40:37.870Z,12.83
2023-12-09T21:42:40.083Z,12.93
2023-12-09T21:44:45.985Z,14.80
2023-12-09T21:46:48.278Z,14.17
2023-12-09T21:48:52.056Z,11.53
2023-12-09T21:50:54.638Z,18.87
2023-12-09T21:52:56.904Z,10.60
2023-12-09T21:54:59.115Z,14.20
2023-12-09T21:57:01.351Z,16.60
2023-12-09T21:59:03.517Z,14.40
2023-12-09T22:01:06.143Z,14.17
2023-12-09T22:03:08.589Z,15.20
2023-12-09T22:05:11.077Z,13.17
2023-12-09T22:07:13.398Z,20.73
2023-12-09T22:09:15.665Z,17.40
2023-12-09T22:11:18.565Z,14.60
2023-12-09T22:13:20.887Z,13.53
2023-12-09T22:15:22.978Z,14.70
2023-12-09T22:17:25.109Z,15.73
2023-12-09T22:19:27.318Z,16.27
2023-12-09T22:21:29.829Z,15.43
2023-12-09T22:23:31.904Z,18.77
2023-12-09T22:25:33.949Z,17.40
2023-12-09T22:27:37.013Z,15.80
2023-12-09T22:29:39.170Z,18.93
2023-12-09T22:31:44.959Z,17.80
2023-12-09T22:33:51.120Z,16.33
2023-12-09T22:35:53.454Z,18.33
2023-12-09T22:37:55.603Z,19.77
2023-12-09T22:39:58.941Z,18.93
2023-12-09T22:42:01.069Z,16.70
2023-12-09T22:44:04.075Z,25.03
2023-12-09T22:46:06.276Z,18.83
2023-12-09T22:48:08.646Z,20.87
2023-12-09T22:50:11.142Z,22.20
2023-12-09T22:52:13.320Z,20.33
2023-12-09T22:54:15.476Z,17.87
2023-12-09T22:56:25.370Z,26.67
2023-12-09T22:58:27.512Z,20.80
2023-12-09T23:00:33.778Z,20.33
2023-12-09T23:02:36.073Z,21.17
2023-12-09T23:04:38.512Z,20.70
2023-12-09T23:06:40.863Z,22.03
2023-12-09T23:08:43.049Z,20.20
2023-12-09T23:10:45.088Z,21.50
2023-12-09T23:12:47.246Z,20.30
2023-12-09T23:14:49.341Z,25.83
2023-12-09T23:16:51.426Z,22.90
2023-12-09T23:18:53.658Z,22.00
2023-12-09T23:20:58.784Z,22.60
2023-12-09T23:23:00.947Z,28.30
2023-12-09T23:25:03.164Z,20.00
2023-12-09T23:27:05.479Z,17.77
2023-12-09T23:29:08.361Z,23.53
2023-12-09T23:31:10.463Z,19.93
2023-12-09T23:33:13.044Z,19.40
2023-12-09T23:35:15.791Z,21.10
2023-12-09T23:37:18.371Z,20.60
2023-12-09T23:39:20.521Z,17.57
2023-12-09T23:41:22.870Z,24.97
2023-12-09T23:43:25.131Z,16.27
2023-12-09T23:45:27.301Z,20.93
2023-12-09T23:47:29.602Z,18.47
2023-12-09T23:49:31.700Z,21.50
2023-12-09T23:51:34.418Z,19.40
2023-12-09T23:53:36.975Z,20.33
2023-12-09T23:55:39.055Z,18.17
2023-12-09T23:57:41.277Z,16.97
2023-12-09T23:59:44.546Z,18.50
